sensor_id;sensor_type;location;lat;lon;timestamp;P1;durP1;ratioP1;P2;durP2;ratioP2
15905;SDS011;8051;50.820;4.884;2023-04-03T00:01:54;24.60;;;22.67;;
15905;SDS011;8051;50.820;4.884;2023-04-03T00:04:22;25.30;;;23.47;;
15905;SDS011;8051;50.820;4.884;2023-04-03T00:06:49;24.70;;;22.93;;
15905;SDS011;8051;50.820;4.884;2023-04-03T00:09:17;24.20;;;22.63;;
15905;SDS011;8051;50.820;4.884;2023-04-03T00:11:45;24.37;;;22.67;;
15905;SDS011;8051;50.820;4.884;2023-04-03T00:14:13;25.33;;;23.57;;
15905;SDS011;8051;50.820;4.884;2023-04-03T00:16:40;23.67;;;22.07;;
15905;SDS011;8051;50.820;4.884;2023-04-03T00:19:09;23.23;;;21.33;;
15905;SDS011;8051;50.820;4.884;2023-04-03T00:21:38;23.93;;;22.23;;
15905;SDS011;8051;50.820;4.884;2023-04-03T00:24:05;24.50;;;22.67;;
15905;SDS011;8051;50.820;4.884;2023-04-03T00:26:33;25.23;;;23.07;;
15905;SDS011;8051;50.820;4.884;2023-04-03T00:29:00;24.90;;;23.20;;
15905;SDS011;8051;50.820;4.884;2023-04-03T00:31:28;23.20;;;21.27;;
15905;SDS011;8051;50.820;4.884;2023-04-03T00:33:55;23.80;;;22.20;;
15905;SDS011;8051;50.820;4.884;2023-04-03T00:36:24;22.63;;;21.23;;
15905;SDS011;8051;50.820;4.884;2023-04-03T00:38:52;23.40;;;21.90;;
15905;SDS011;8051;50.820;4.884;2023-04-03T00:41:19;24.00;;;22.47;;
15905;SDS011;8051;50.820;4.884;2023-04-03T00:43:47;24.10;;;22.40;;
15905;SDS011;8051;50.820;4.884;2023-04-03T00:46:15;25.03;;;23.30;;
15905;SDS011;8051;50.820;4.884;2023-04-03T00:48:44;24.53;;;22.97;;
15905;SDS011;8051;50.820;4.884;2023-04-03T00:51:13;24.43;;;22.73;;
15905;SDS011;8051;50.820;4.884;2023-04-03T00:53:46;23.70;;;22.20;;
15905;SDS011;8051;50.820;4.884;2023-04-03T00:56:16;24.90;;;23.30;;
15905;SDS011;8051;50.820;4.884;2023-04-03T00:58:48;23.47;;;21.77;;
15905;SDS011;8051;50.820;4.884;2023-04-03T01:01:20;24.03;;;22.30;;
15905;SDS011;8051;50.820;4.884;2023-04-03T01:03:51;23.83;;;22.07;;
15905;SDS011;8051;50.820;4.884;2023-04-03T01:06:20;25.03;;;23.33;;
15905;SDS011;8051;50.820;4.884;2023-04-03T01:08:52;24.97;;;23.17;;
15905;SDS011;8051;50.820;4.884;2023-04-03T01:11:21;25.33;;;23.27;;
15905;SDS011;8051;50.820;4.884;2023-04-03T01:13:48;24.33;;;22.83;;
15905;SDS011;8051;50.820;4.884;2023-04-03T01:16:16;24.90;;;23.00;;
15905;SDS011;8051;50.820;4.884;2023-04-03T01:18:44;25.53;;;23.67;;
15905;SDS011;8051;50.820;4.884;2023-04-03T01:24:17;22.40;;;21.00;;
15905;SDS011;8051;50.820;4.884;2023-04-03T01:26:54;22.80;;;20.77;;
15905;SDS011;8051;50.820;4.884;2023-04-03T01:29:22;23.63;;;21.93;;
15905;SDS011;8051;50.820;4.884;2023-04-03T01:31:52;24.03;;;22.43;;
15905;SDS011;8051;50.820;4.884;2023-04-03T01:34:20;23.00;;;21.47;;
15905;SDS011;8051;50.820;4.884;2023-04-03T01:36:48;23.53;;;21.87;;
15905;SDS011;8051;50.820;4.884;2023-04-03T01:39:17;23.77;;;21.97;;
15905;SDS011;8051;50.820;4.884;2023-04-03T01:41:45;24.00;;;22.50;;
15905;SDS011;8051;50.820;4.884;2023-04-03T01:44:12;24.77;;;23.17;;
15905;SDS011;8051;50.820;4.884;2023-04-03T01:46:40;24.47;;;22.67;;
15905;SDS011;8051;50.820;4.884;2023-04-03T01:49:09;24.73;;;22.90;;
15905;SDS011;8051;50.820;4.884;2023-04-03T01:51:37;24.87;;;22.60;;
15905;SDS011;8051;50.820;4.884;2023-04-03T01:54:04;23.90;;;21.87;;
15905;SDS011;8051;50.820;4.884;2023-04-03T01:56:32;24.30;;;22.70;;
15905;SDS011;8051;50.820;4.884;2023-04-03T01:58:59;24.37;;;22.80;;
15905;SDS011;8051;50.820;4.884;2023-04-03T02:01:26;23.53;;;22.00;;
15905;SDS011;8051;50.820;4.884;2023-04-03T02:03:53;24.27;;;22.73;;
15905;SDS011;8051;50.820;4.884;2023-04-03T02:06:22;22.53;;;21.03;;
15905;SDS011;8051;50.820;4.884;2023-04-03T02:08:50;23.97;;;22.33;;
15905;SDS011;8051;50.820;4.884;2023-04-03T02:11:17;24.83;;;23.13;;
15905;SDS011;8051;50.820;4.884;2023-04-03T02:13:45;24.60;;;22.97;;
15905;SDS011;8051;50.820;4.884;2023-04-03T02:16:12;25.90;;;24.00;;
15905;SDS011;8051;50.820;4.884;2023-04-03T02:18:40;23.43;;;21.93;;
15905;SDS011;8051;50.820;4.884;2023-04-03T02:21:07;25.43;;;23.63;;
15905;SDS011;8051;50.820;4.884;2023-04-03T02:23:36;24.10;;;22.50;;
15905;SDS011;8051;50.820;4.884;2023-04-03T02:26:05;25.63;;;23.93;;
15905;SDS011;8051;50.820;4.884;2023-04-03T02:28:33;25.57;;;23.70;;
15905;SDS011;8051;50.820;4.884;2023-04-03T02:31:01;25.57;;;23.80;;
15905;SDS011;8051;50.820;4.884;2023-04-03T02:33:29;26.17;;;24.47;;
15905;SDS011;8051;50.820;4.884;2023-04-03T02:35:57;26.93;;;24.50;;
15905;SDS011;8051;50.820;4.884;2023-04-03T02:38:25;26.37;;;24.23;;
15905;SDS011;8051;50.820;4.884;2023-04-03T02:40:57;25.57;;;23.70;;
15905;SDS011;8051;50.820;4.884;2023-04-03T02:43:27;25.80;;;23.83;;
15905;SDS011;8051;50.820;4.884;2023-04-03T02:45:54;25.93;;;23.93;;
15905;SDS011;8051;50.820;4.884;2023-04-03T02:48:22;25.47;;;23.47;;
15905;SDS011;8051;50.820;4.884;2023-04-03T02:50:50;26.37;;;24.13;;
15905;SDS011;8051;50.820;4.884;2023-04-03T02:53:18;26.53;;;24.40;;
15905;SDS011;8051;50.820;4.884;2023-04-03T02:55:45;25.83;;;23.97;;
15905;SDS011;8051;50.820;4.884;2023-04-03T02:58:15;26.23;;;24.23;;
15905;SDS011;8051;50.820;4.884;2023-04-03T03:00:42;26.20;;;24.17;;
15905;SDS011;8051;50.820;4.884;2023-04-03T03:03:10;24.37;;;22.67;;
15905;SDS011;8051;50.820;4.884;2023-04-03T03:05:38;24.87;;;22.97;;
15905;SDS011;8051;50.820;4.884;2023-04-03T03:08:06;25.20;;;23.40;;
15905;SDS011;8051;50.820;4.884;2023-04-03T03:10:33;24.03;;;22.33;;
15905;SDS011;8051;50.820;4.884;2023-04-03T03:13:01;25.37;;;22.47;;
15905;SDS011;8051;50.820;4.884;2023-04-03T03:15:29;24.37;;;22.73;;
15905;SDS011;8051;50.820;4.884;2023-04-03T03:17:57;26.03;;;23.97;;
15905;SDS011;8051;50.820;4.884;2023-04-03T03:20:26;25.27;;;23.27;;
15905;SDS011;8051;50.820;4.884;2023-04-03T03:22:53;25.57;;;23.77;;
15905;SDS011;8051;50.820;4.884;2023-04-03T03:25:20;26.50;;;24.27;;
15905;SDS011;8051;50.820;4.884;2023-04-03T03:27:48;24.60;;;22.70;;
15905;SDS011;8051;50.820;4.884;2023-04-03T03:30:15;24.43;;;22.50;;
15905;SDS011;8051;50.820;4.884;2023-04-03T03:32:44;25.80;;;23.60;;
15905;SDS011;8051;50.820;4.884;2023-04-03T03:35:12;25.63;;;23.73;;
15905;SDS011;8051;50.820;4.884;2023-04-03T03:37:39;26.70;;;24.17;;
15905;SDS011;8051;50.820;4.884;2023-04-03T03:40:07;27.80;;;25.60;;
15905;SDS011;8051;50.820;4.884;2023-04-03T03:42:37;26.00;;;24.00;;
15905;SDS011;8051;50.820;4.884;2023-04-03T03:45:05;26.93;;;24.83;;
15905;SDS011;8051;50.820;4.884;2023-04-03T03:47:34;25.87;;;23.87;;
15905;SDS011;8051;50.820;4.884;2023-04-03T03:50:03;25.83;;;23.87;;
15905;SDS011;8051;50.820;4.884;2023-04-03T03:52:32;26.53;;;24.57;;
15905;SDS011;8051;50.820;4.884;2023-04-03T03:54:59;25.47;;;23.37;;
15905;SDS011;8051;50.820;4.884;2023-04-03T03:57:27;25.80;;;23.90;;
15905;SDS011;8051;50.820;4.884;2023-04-03T03:59:55;26.63;;;24.33;;
15905;SDS011;8051;50.820;4.884;2023-04-03T04:02:23;25.50;;;23.70;;
15905;SDS011;8051;50.820;4.884;2023-04-03T04:04:50;26.50;;;24.30;;
15905;SDS011;8051;50.820;4.884;2023-04-03T04:07:19;25.73;;;23.43;;
15905;SDS011;8051;50.820;4.884;2023-04-03T04:09:48;25.77;;;23.87;;
15905;SDS011;8051;50.820;4.884;2023-04-03T04:12:15;26.57;;;24.27;;
15905;SDS011;8051;50.820;4.884;2023-04-03T04:14:43;24.67;;;22.97;;
15905;SDS011;8051;50.820;4.884;2023-04-03T04:17:11;23.93;;;22.03;;
15905;SDS011;8051;50.820;4.884;2023-04-03T04:19:39;25.07;;;22.87;;
15905;SDS011;8051;50.820;4.884;2023-04-03T04:22:07;23.60;;;21.70;;
15905;SDS011;8051;50.820;4.884;2023-04-03T04:24:35;24.37;;;22.43;;
15905;SDS011;8051;50.820;4.884;2023-04-03T04:27:03;24.50;;;22.67;;
15905;SDS011;8051;50.820;4.884;2023-04-03T04:29:30;26.03;;;24.07;;
15905;SDS011;8051;50.820;4.884;2023-04-03T04:32:00;24.17;;;22.13;;
15905;SDS011;8051;50.820;4.884;2023-04-03T04:34:28;24.97;;;22.97;;
15905;SDS011;8051;50.820;4.884;2023-04-03T04:36:56;24.23;;;22.40;;
15905;SDS011;8051;50.820;4.884;2023-04-03T04:39:23;25.30;;;23.27;;
15905;SDS011;8051;50.820;4.884;2023-04-03T04:41:52;27.73;;;25.30;;
15905;SDS011;8051;50.820;4.884;2023-04-03T04:44:19;25.37;;;23.50;;
15905;SDS011;8051;50.820;4.884;2023-04-03T04:46:47;26.83;;;24.80;;
15905;SDS011;8051;50.820;4.884;2023-04-03T04:49:14;25.70;;;23.57;;
15905;SDS011;8051;50.820;4.884;2023-04-03T04:51:42;26.37;;;24.40;;
15905;SDS011;8051;50.820;4.884;2023-04-03T04:54:09;25.87;;;24.00;;
15905;SDS011;8051;50.820;4.884;2023-04-03T04:56:37;26.93;;;24.63;;
15905;SDS011;8051;50.820;4.884;2023-04-03T04:59:06;27.07;;;24.97;;
15905;SDS011;8051;50.820;4.884;2023-04-03T05:01:33;28.13;;;26.13;;
15905;SDS011;8051;50.820;4.884;2023-04-03T05:04:01;27.27;;;25.13;;
15905;SDS011;8051;50.820;4.884;2023-04-03T05:06:28;26.87;;;24.83;;
15905;SDS011;8051;50.820;4.884;2023-04-03T05:08:57;26.70;;;24.90;;
15905;SDS011;8051;50.820;4.884;2023-04-03T05:11:24;27.80;;;25.80;;
15905;SDS011;8051;50.820;4.884;2023-04-03T05:13:52;27.73;;;25.80;;
15905;SDS011;8051;50.820;4.884;2023-04-03T05:16:20;27.83;;;25.50;;
15905;SDS011;8051;50.820;4.884;2023-04-03T05:18:48;28.93;;;26.53;;
15905;SDS011;8051;50.820;4.884;2023-04-03T05:21:15;29.07;;;26.97;;
15905;SDS011;8051;50.820;4.884;2023-04-03T05:23:44;26.77;;;24.70;;
15905;SDS011;8051;50.820;4.884;2023-04-03T05:26:11;29.30;;;26.90;;
15905;SDS011;8051;50.820;4.884;2023-04-03T05:28:39;29.00;;;26.63;;
15905;SDS011;8051;50.820;4.884;2023-04-03T05:31:06;30.13;;;27.63;;
15905;SDS011;8051;50.820;4.884;2023-04-03T05:33:36;29.47;;;27.17;;
15905;SDS011;8051;50.820;4.884;2023-04-03T05:36:03;35.70;;;32.60;;
15905;SDS011;8051;50.820;4.884;2023-04-03T05:38:32;35.17;;;32.17;;
15905;SDS011;8051;50.820;4.884;2023-04-03T05:40:59;43.57;;;39.67;;
15905;SDS011;8051;50.820;4.884;2023-04-03T05:43:26;50.33;;;45.73;;
15905;SDS011;8051;50.820;4.884;2023-04-03T05:45:54;58.37;;;52.80;;
15905;SDS011;8051;50.820;4.884;2023-04-03T05:48:21;57.57;;;52.17;;
15905;SDS011;8051;50.820;4.884;2023-04-03T05:50:50;56.87;;;51.40;;
15905;SDS011;8051;50.820;4.884;2023-04-03T05:53:19;63.07;;;56.97;;
15905;SDS011;8051;50.820;4.884;2023-04-03T05:55:50;59.43;;;53.03;;
15905;SDS011;8051;50.820;4.884;2023-04-03T05:58:19;49.83;;;44.97;;
15905;SDS011;8051;50.820;4.884;2023-04-03T06:00:46;48.90;;;41.57;;
15905;SDS011;8051;50.820;4.884;2023-04-03T06:03:13;42.70;;;38.13;;
15905;SDS011;8051;50.820;4.884;2023-04-03T06:05:41;38.10;;;34.37;;
15905;SDS011;8051;50.820;4.884;2023-04-03T06:08:10;41.53;;;34.93;;
15905;SDS011;8051;50.820;4.884;2023-04-03T06:10:39;33.37;;;30.10;;
15905;SDS011;8051;50.820;4.884;2023-04-03T06:13:07;28.30;;;25.90;;
15905;SDS011;8051;50.820;4.884;2023-04-03T06:15:34;29.80;;;27.47;;
15905;SDS011;8051;50.820;4.884;2023-04-03T06:18:02;30.73;;;28.10;;
15905;SDS011;8051;50.820;4.884;2023-04-03T06:20:29;29.60;;;26.70;;
15905;SDS011;8051;50.820;4.884;2023-04-03T06:22:57;31.03;;;27.83;;
15905;SDS011;8051;50.820;4.884;2023-04-03T06:25:26;29.33;;;26.60;;
15905;SDS011;8051;50.820;4.884;2023-04-03T06:27:54;30.43;;;27.93;;
15905;SDS011;8051;50.820;4.884;2023-04-03T06:30:21;29.53;;;26.73;;
15905;SDS011;8051;50.820;4.884;2023-04-03T06:32:49;29.27;;;27.07;;
15905;SDS011;8051;50.820;4.884;2023-04-03T06:35:17;30.47;;;27.60;;
15905;SDS011;8051;50.820;4.884;2023-04-03T06:37:44;29.70;;;27.20;;
15905;SDS011;8051;50.820;4.884;2023-04-03T06:40:13;31.07;;;28.57;;
15905;SDS011;8051;50.820;4.884;2023-04-03T06:42:47;29.70;;;26.90;;
15905;SDS011;8051;50.820;4.884;2023-04-03T06:45:14;30.07;;;27.57;;
15905;SDS011;8051;50.820;4.884;2023-04-03T06:47:42;30.47;;;27.97;;
15905;SDS011;8051;50.820;4.884;2023-04-03T06:50:10;31.10;;;28.30;;
15905;SDS011;8051;50.820;4.884;2023-04-03T06:52:39;29.83;;;27.53;;
15905;SDS011;8051;50.820;4.884;2023-04-03T06:55:07;29.53;;;27.23;;
15905;SDS011;8051;50.820;4.884;2023-04-03T06:57:35;28.37;;;26.27;;
15905;SDS011;8051;50.820;4.884;2023-04-03T07:00:05;28.70;;;26.53;;
15905;SDS011;8051;50.820;4.884;2023-04-03T07:02:34;41.10;;;28.53;;
15905;SDS011;8051;50.820;4.884;2023-04-03T07:05:01;212.63;;;51.70;;
15905;SDS011;8051;50.820;4.884;2023-04-03T07:07:29;65.07;;;31.07;;
15905;SDS011;8051;50.820;4.884;2023-04-03T07:09:58;33.70;;;30.13;;
15905;SDS011;8051;50.820;4.884;2023-04-03T07:12:25;29.23;;;26.77;;
15905;SDS011;8051;50.820;4.884;2023-04-03T07:14:53;34.53;;;29.87;;
15905;SDS011;8051;50.820;4.884;2023-04-03T07:17:22;30.40;;;27.77;;
15905;SDS011;8051;50.820;4.884;2023-04-03T07:19:50;29.57;;;27.07;;
15905;SDS011;8051;50.820;4.884;2023-04-03T07:22:18;28.27;;;26.07;;
15905;SDS011;8051;50.820;4.884;2023-04-03T07:24:45;28.77;;;26.47;;
15905;SDS011;8051;50.820;4.884;2023-04-03T07:27:13;28.43;;;26.30;;
15905;SDS011;8051;50.820;4.884;2023-04-03T07:29:40;29.13;;;26.37;;
15905;SDS011;8051;50.820;4.884;2023-04-03T07:32:08;27.00;;;24.87;;
15905;SDS011;8051;50.820;4.884;2023-04-03T07:34:37;27.43;;;25.40;;
15905;SDS011;8051;50.820;4.884;2023-04-03T07:37:05;27.03;;;24.90;;
15905;SDS011;8051;50.820;4.884;2023-04-03T07:39:34;27.93;;;25.47;;
15905;SDS011;8051;50.820;4.884;2023-04-03T07:42:01;28.83;;;26.53;;
15905;SDS011;8051;50.820;4.884;2023-04-03T07:44:29;30.53;;;28.37;;
15905;SDS011;8051;50.820;4.884;2023-04-03T07:46:57;30.03;;;27.63;;
15905;SDS011;8051;50.820;4.884;2023-04-03T07:49:25;35.53;;;29.13;;
15905;SDS011;8051;50.820;4.884;2023-04-03T07:51:54;29.30;;;26.83;;
15905;SDS011;8051;50.820;4.884;2023-04-03T07:54:21;26.37;;;24.40;;
15905;SDS011;8051;50.820;4.884;2023-04-03T07:56:48;27.90;;;25.57;;
15905;SDS011;8051;50.820;4.884;2023-04-03T07:59:16;28.00;;;26.00;;
15905;SDS011;8051;50.820;4.884;2023-04-03T08:01:43;28.47;;;26.37;;
15905;SDS011;8051;50.820;4.884;2023-04-03T08:04:11;26.43;;;24.60;;
15905;SDS011;8051;50.820;4.884;2023-04-03T08:06:38;26.27;;;24.47;;
15905;SDS011;8051;50.820;4.884;2023-04-03T08:09:07;27.30;;;25.13;;
15905;SDS011;8051;50.820;4.884;2023-04-03T08:11:35;28.40;;;26.20;;
15905;SDS011;8051;50.820;4.884;2023-04-03T08:14:05;27.53;;;25.73;;
15905;SDS011;8051;50.820;4.884;2023-04-03T08:16:32;26.10;;;23.97;;
15905;SDS011;8051;50.820;4.884;2023-04-03T08:19:00;27.47;;;25.47;;
15905;SDS011;8051;50.820;4.884;2023-04-03T08:21:28;27.67;;;25.40;;
15905;SDS011;8051;50.820;4.884;2023-04-03T08:23:55;27.33;;;25.27;;
15905;SDS011;8051;50.820;4.884;2023-04-03T08:26:24;28.20;;;26.00;;
15905;SDS011;8051;50.820;4.884;2023-04-03T08:28:52;27.33;;;25.10;;
15905;SDS011;8051;50.820;4.884;2023-04-03T08:31:19;26.47;;;24.40;;
15905;SDS011;8051;50.820;4.884;2023-04-03T08:33:47;25.70;;;23.80;;
15905;SDS011;8051;50.820;4.884;2023-04-03T08:36:19;27.00;;;24.87;;
15905;SDS011;8051;50.820;4.884;2023-04-03T08:38:47;27.13;;;25.23;;
15905;SDS011;8051;50.820;4.884;2023-04-03T08:41:16;26.33;;;24.53;;
15905;SDS011;8051;50.820;4.884;2023-04-03T08:44:01;27.60;;;25.23;;
15905;SDS011;8051;50.820;4.884;2023-04-03T08:46:39;27.93;;;25.60;;
15905;SDS011;8051;50.820;4.884;2023-04-03T08:49:17;27.73;;;25.50;;
15905;SDS011;8051;50.820;4.884;2023-04-03T08:51:49;26.47;;;24.27;;
15905;SDS011;8051;50.820;4.884;2023-04-03T08:54:21;25.43;;;23.43;;
15905;SDS011;8051;50.820;4.884;2023-04-03T08:56:55;24.57;;;22.83;;
15905;SDS011;8051;50.820;4.884;2023-04-03T08:59:26;24.23;;;22.23;;
15905;SDS011;8051;50.820;4.884;2023-04-03T09:01:57;25.77;;;23.80;;
15905;SDS011;8051;50.820;4.884;2023-04-03T09:04:30;24.80;;;23.17;;
15905;SDS011;8051;50.820;4.884;2023-04-03T09:07:02;23.57;;;21.87;;
15905;SDS011;8051;50.820;4.884;2023-04-03T09:09:36;24.17;;;22.37;;
15905;SDS011;8051;50.820;4.884;2023-04-03T09:12:09;22.60;;;21.00;;
15905;SDS011;8051;50.820;4.884;2023-04-03T09:14:46;23.07;;;21.47;;
15905;SDS011;8051;50.820;4.884;2023-04-03T09:17:24;23.47;;;21.80;;
15905;SDS011;8051;50.820;4.884;2023-04-03T09:20:04;23.30;;;21.80;;
15905;SDS011;8051;50.820;4.884;2023-04-03T09:22:38;22.10;;;20.57;;
15905;SDS011;8051;50.820;4.884;2023-04-03T09:25:10;22.40;;;20.90;;
15905;SDS011;8051;50.820;4.884;2023-04-03T09:27:40;23.47;;;21.87;;
15905;SDS011;8051;50.820;4.884;2023-04-03T09:30:13;21.93;;;20.43;;
15905;SDS011;8051;50.820;4.884;2023-04-03T09:32:44;22.93;;;21.43;;
15905;SDS011;8051;50.820;4.884;2023-04-03T09:35:19;24.13;;;22.43;;
15905;SDS011;8051;50.820;4.884;2023-04-03T09:37:50;22.00;;;20.50;;
15905;SDS011;8051;50.820;4.884;2023-04-03T09:40:29;21.10;;;19.63;;
15905;SDS011;8051;50.820;4.884;2023-04-03T09:43:00;21.53;;;20.17;;
15905;SDS011;8051;50.820;4.884;2023-04-03T09:45:46;21.57;;;20.07;;
15905;SDS011;8051;50.820;4.884;2023-04-03T09:48:16;21.53;;;19.93;;
15905;SDS011;8051;50.820;4.884;2023-04-03T09:50:55;22.60;;;20.73;;
15905;SDS011;8051;50.820;4.884;2023-04-03T09:53:26;23.10;;;21.60;;
15905;SDS011;8051;50.820;4.884;2023-04-03T09:55:56;23.73;;;21.90;;
15905;SDS011;8051;50.820;4.884;2023-04-03T09:58:25;23.70;;;22.10;;
15905;SDS011;8051;50.820;4.884;2023-04-03T10:00:56;25.70;;;23.70;;
15905;SDS011;8051;50.820;4.884;2023-04-03T10:03:25;24.57;;;22.70;;
15905;SDS011;8051;50.820;4.884;2023-04-03T10:05:56;22.03;;;20.27;;
15905;SDS011;8051;50.820;4.884;2023-04-03T10:08:25;23.40;;;21.73;;
15905;SDS011;8051;50.820;4.884;2023-04-03T10:11:09;24.97;;;23.13;;
15905;SDS011;8051;50.820;4.884;2023-04-03T10:13:50;22.97;;;21.47;;
15905;SDS011;8051;50.820;4.884;2023-04-03T10:16:23;23.07;;;21.33;;
15905;SDS011;8051;50.820;4.884;2023-04-03T10:19:09;22.97;;;21.33;;
15905;SDS011;8051;50.820;4.884;2023-04-03T10:21:50;22.63;;;20.93;;
15905;SDS011;8051;50.820;4.884;2023-04-03T10:24:25;21.77;;;20.17;;
15905;SDS011;8051;50.820;4.884;2023-04-03T10:26:59;21.67;;;19.90;;
15905;SDS011;8051;50.820;4.884;2023-04-03T10:29:37;19.37;;;18.20;;
15905;SDS011;8051;50.820;4.884;2023-04-03T10:32:14;17.80;;;16.70;;
15905;SDS011;8051;50.820;4.884;2023-04-03T10:34:59;18.40;;;17.10;;
15905;SDS011;8051;50.820;4.884;2023-04-03T10:37:34;18.77;;;17.30;;
15905;SDS011;8051;50.820;4.884;2023-04-03T10:40:12;19.23;;;17.43;;
15905;SDS011;8051;50.820;4.884;2023-04-03T10:42:50;18.13;;;16.93;;
15905;SDS011;8051;50.820;4.884;2023-04-03T10:45:26;18.27;;;16.90;;
15905;SDS011;8051;50.820;4.884;2023-04-03T10:48:00;18.07;;;16.87;;
15905;SDS011;8051;50.820;4.884;2023-04-03T10:50:39;17.93;;;16.73;;
15905;SDS011;8051;50.820;4.884;2023-04-03T10:53:18;17.30;;;16.17;;
15905;SDS011;8051;50.820;4.884;2023-04-03T10:55:53;16.63;;;15.47;;
15905;SDS011;8051;50.820;4.884;2023-04-03T10:58:26;19.00;;;17.70;;
15905;SDS011;8051;50.820;4.884;2023-04-03T11:01:00;18.17;;;16.87;;
15905;SDS011;8051;50.820;4.884;2023-04-03T11:03:34;18.00;;;16.83;;
15905;SDS011;8051;50.820;4.884;2023-04-03T11:06:06;16.93;;;15.93;;
15905;SDS011;8051;50.820;4.884;2023-04-03T11:08:37;19.60;;;18.33;;
15905;SDS011;8051;50.820;4.884;2023-04-03T11:11:12;16.90;;;15.80;;
15905;SDS011;8051;50.820;4.884;2023-04-03T11:13:45;17.33;;;16.17;;
15905;SDS011;8051;50.820;4.884;2023-04-03T11:16:21;18.00;;;16.77;;
15905;SDS011;8051;50.820;4.884;2023-04-03T11:18:54;17.23;;;16.00;;
15905;SDS011;8051;50.820;4.884;2023-04-03T11:21:27;17.20;;;15.90;;
15905;SDS011;8051;50.820;4.884;2023-04-03T11:23:59;16.30;;;15.40;;
15905;SDS011;8051;50.820;4.884;2023-04-03T11:26:35;15.43;;;14.53;;
15905;SDS011;8051;50.820;4.884;2023-04-03T11:29:08;15.93;;;14.87;;
15905;SDS011;8051;50.820;4.884;2023-04-03T11:31:43;15.50;;;14.40;;
15905;SDS011;8051;50.820;4.884;2023-04-03T11:34:29;14.67;;;13.77;;
15905;SDS011;8051;50.820;4.884;2023-04-03T11:37:04;15.97;;;14.97;;
15905;SDS011;8051;50.820;4.884;2023-04-03T11:39:39;14.43;;;13.53;;
15905;SDS011;8051;50.820;4.884;2023-04-03T11:42:21;16.37;;;15.30;;
15905;SDS011;8051;50.820;4.884;2023-04-03T11:47:49;15.93;;;14.73;;
15905;SDS011;8051;50.820;4.884;2023-04-03T11:50:38;16.73;;;15.70;;
15905;SDS011;8051;50.820;4.884;2023-04-03T11:55:58;16.47;;;15.47;;
15905;SDS011;8051;50.820;4.884;2023-04-03T11:58:28;15.80;;;14.80;;
15905;SDS011;8051;50.820;4.884;2023-04-03T12:01:02;15.60;;;14.73;;
15905;SDS011;8051;50.820;4.884;2023-04-03T12:12:33;15.00;;;14.20;;
15905;SDS011;8051;50.820;4.884;2023-04-03T12:15:18;14.83;;;13.93;;
15905;SDS011;8051;50.820;4.884;2023-04-03T12:17:49;14.30;;;13.43;;
15905;SDS011;8051;50.820;4.884;2023-04-03T12:23:29;16.33;;;15.30;;
15905;SDS011;8051;50.820;4.884;2023-04-03T12:26:00;16.10;;;15.20;;
15905;SDS011;8051;50.820;4.884;2023-04-03T12:28:35;17.10;;;16.00;;
15905;SDS011;8051;50.820;4.884;2023-04-03T12:31:05;15.63;;;14.47;;
15905;SDS011;8051;50.820;4.884;2023-04-03T12:33:38;16.63;;;15.67;;
15905;SDS011;8051;50.820;4.884;2023-04-03T12:36:26;16.20;;;15.30;;
15905;SDS011;8051;50.820;4.884;2023-04-03T12:39:09;16.17;;;15.27;;
15905;SDS011;8051;50.820;4.884;2023-04-03T12:41:50;16.33;;;15.20;;
15905;SDS011;8051;50.820;4.884;2023-04-03T12:44:35;16.57;;;15.67;;
15905;SDS011;8051;50.820;4.884;2023-04-03T12:47:18;15.67;;;14.87;;
15905;SDS011;8051;50.820;4.884;2023-04-03T12:49:49;16.27;;;15.40;;
15905;SDS011;8051;50.820;4.884;2023-04-03T12:52:19;16.00;;;15.20;;
15905;SDS011;8051;50.820;4.884;2023-04-03T12:54:59;16.60;;;15.57;;
15905;SDS011;8051;50.820;4.884;2023-04-03T12:57:29;16.80;;;15.80;;
15905;SDS011;8051;50.820;4.884;2023-04-03T12:59:58;17.00;;;16.10;;
15905;SDS011;8051;50.820;4.884;2023-04-03T13:02:26;16.63;;;15.53;;
15905;SDS011;8051;50.820;4.884;2023-04-03T13:04:56;16.30;;;15.30;;
15905;SDS011;8051;50.820;4.884;2023-04-03T13:07:27;17.50;;;16.40;;
15905;SDS011;8051;50.820;4.884;2023-04-03T13:10:03;17.17;;;16.07;;
15905;SDS011;8051;50.820;4.884;2023-04-03T13:12:50;17.13;;;16.13;;
15905;SDS011;8051;50.820;4.884;2023-04-03T13:15:20;17.00;;;16.00;;
15905;SDS011;8051;50.820;4.884;2023-04-03T13:17:50;18.27;;;17.10;;
15905;SDS011;8051;50.820;4.884;2023-04-03T13:20:19;18.07;;;16.87;;
15905;SDS011;8051;50.820;4.884;2023-04-03T13:22:51;18.00;;;16.90;;
15905;SDS011;8051;50.820;4.884;2023-04-03T13:25:26;17.63;;;16.60;;
15905;SDS011;8051;50.820;4.884;2023-04-03T13:27:56;18.00;;;16.80;;
15905;SDS011;8051;50.820;4.884;2023-04-03T13:30:27;18.57;;;17.47;;
15905;SDS011;8051;50.820;4.884;2023-04-03T13:32:56;18.30;;;17.30;;
15905;SDS011;8051;50.820;4.884;2023-04-03T13:35:33;18.67;;;17.50;;
15905;SDS011;8051;50.820;4.884;2023-04-03T13:38:03;17.80;;;16.80;;
15905;SDS011;8051;50.820;4.884;2023-04-03T13:40:35;17.20;;;16.00;;
15905;SDS011;8051;50.820;4.884;2023-04-03T13:43:17;17.43;;;16.53;;
15905;SDS011;8051;50.820;4.884;2023-04-03T13:45:53;17.77;;;16.57;;
15905;SDS011;8051;50.820;4.884;2023-04-03T13:48:26;17.03;;;15.90;;
15905;SDS011;8051;50.820;4.884;2023-04-03T13:51:01;16.73;;;15.87;;
15905;SDS011;8051;50.820;4.884;2023-04-03T13:53:31;16.53;;;15.60;;
15905;SDS011;8051;50.820;4.884;2023-04-03T13:56:09;17.47;;;16.40;;
15905;SDS011;8051;50.820;4.884;2023-04-03T13:58:52;17.43;;;16.43;;
15905;SDS011;8051;50.820;4.884;2023-04-03T14:01:32;17.23;;;16.23;;
15905;SDS011;8051;50.820;4.884;2023-04-03T14:04:10;17.70;;;15.97;;
15905;SDS011;8051;50.820;4.884;2023-04-03T14:06:42;15.90;;;15.00;;
15905;SDS011;8051;50.820;4.884;2023-04-03T14:09:10;15.77;;;14.90;;
15905;SDS011;8051;50.820;4.884;2023-04-03T14:11:39;15.73;;;14.37;;
15905;SDS011;8051;50.820;4.884;2023-04-03T14:14:10;16.53;;;15.43;;
15905;SDS011;8051;50.820;4.884;2023-04-03T14:16:41;16.23;;;15.33;;
15905;SDS011;8051;50.820;4.884;2023-04-03T14:19:16;15.20;;;14.33;;
15905;SDS011;8051;50.820;4.884;2023-04-03T14:21:46;15.90;;;14.90;;
15905;SDS011;8051;50.820;4.884;2023-04-03T14:24:14;16.57;;;15.10;;
15905;SDS011;8051;50.820;4.884;2023-04-03T14:26:43;16.33;;;15.43;;
15905;SDS011;8051;50.820;4.884;2023-04-03T14:29:11;15.23;;;14.20;;
15905;SDS011;8051;50.820;4.884;2023-04-03T14:31:39;14.87;;;14.07;;
15905;SDS011;8051;50.820;4.884;2023-04-03T14:34:09;15.43;;;14.47;;
15905;SDS011;8051;50.820;4.884;2023-04-03T14:36:37;16.33;;;14.43;;
15905;SDS011;8051;50.820;4.884;2023-04-03T14:39:06;14.77;;;13.87;;
15905;SDS011;8051;50.820;4.884;2023-04-03T14:41:37;16.30;;;15.40;;
15905;SDS011;8051;50.820;4.884;2023-04-03T14:44:06;15.77;;;14.73;;
15905;SDS011;8051;50.820;4.884;2023-04-03T14:46:34;15.03;;;14.23;;
15905;SDS011;8051;50.820;4.884;2023-04-03T14:49:04;15.40;;;14.40;;
15905;SDS011;8051;50.820;4.884;2023-04-03T14:51:39;16.93;;;15.93;;
15905;SDS011;8051;50.820;4.884;2023-04-03T14:54:10;17.40;;;16.20;;
15905;SDS011;8051;50.820;4.884;2023-04-03T14:56:40;15.70;;;14.80;;
15905;SDS011;8051;50.820;4.884;2023-04-03T14:59:11;17.27;;;16.00;;
15905;SDS011;8051;50.820;4.884;2023-04-03T15:01:39;16.13;;;15.20;;
15905;SDS011;8051;50.820;4.884;2023-04-03T15:04:10;16.23;;;15.00;;
15905;SDS011;8051;50.820;4.884;2023-04-03T15:06:38;16.27;;;15.37;;
15905;SDS011;8051;50.820;4.884;2023-04-03T15:09:08;16.57;;;15.57;;
15905;SDS011;8051;50.820;4.884;2023-04-03T15:11:44;16.20;;;15.20;;
15905;SDS011;8051;50.820;4.884;2023-04-03T15:14:13;15.17;;;14.20;;